Skip Navigation Links
NOAA logo - Click to go to the NOAA homepage
NOAA's National Weather Service
Alaska Aviation Weather Unit
  NWS logo - Click to go to the NWS homepage
Left Navbar Graphic     08 AKDT = 16 GMT

   
NOAA is celebrating 200 years of science, service, and stewardship. Visit the NOAA 200th celebration Web site to learn more.
USA.gov is the U.S. Government's official Web portal to all Federal, state and local government Web resources and services.
Facebook
NWS on Facebook

Important Change Regarding the AAWU Web Presence

 

Over the last several months, the AAWU has been working to navigate its webpages to a nationally supported server. Security, as well as other needs, have necessitated the change.  In the process, we have made an effort to enhance the functionality of our website, as well as some of our products. As of June 20, 2017, aawu.arh.noaa.gov will be discontinued. The new AAWU web address is weather.gov/aawu. It is now live and will run in-parallel with the old site until it is discontinued. Please send any feedback or questions regarding the new webpages to nws.ar.aawu.webauthors@noaa.gov.  Thank you for your patience during this time of transition.
AAWU Home :: Display TAF Add Bookmark
TAF PAIL 291136Z 2912/3012 VRB04KT P6SM -SHRA BKN040 OVC070
     FM291500 VRB04KT P6SM VCSH SCT025 OVC040
     FM292100 15008KT P6SM SCT040 BKN060
     FM300300 12005KT P6SM FEW080 SCT150
     FM300800 VRB03KT P6SM SKC=

METAR PAIL 291053Z AUTO 09004KT 10SM BKN041 BKN070 04/03 A2983 RMK AO2 SLP103 T00440028 TSNO= METAR PAIL 291153Z AUTO 00000KT 10SM SCT039 BKN050 BKN080 03/02 A2983 RMK AO2 SLP105 60001 70004 T00280022 10067 20028 51006 TSNO= METAR PAIL 291253Z AUTO 34004KT 10SM -RA BKN030 OVC043 03/03 A2984 RMK AO2 RAB07 SLP105 P0000 T00330033 TSNO= SPECI PAIL 291305Z AUTO 34004KT 10SM -RA BKN029 OVC039 04/03 A2984 RMK AO2 P0000 T00390033 TSNO= SPECI PAIL 291312Z AUTO 34003KT 10SM SCT029 OVC041 04/03 A2984 RMK AO2 RAE08 P0000 T00390033 TSNO= METAR PAIL 291353Z 03005KT 10SM FEW045 OVC065 03/03 A2984 RMK AO2 RAE08 SLP107 P0000 T00330028= METAR PAIL 291453Z 00000KT 10SM FEW039 BKN065 03/02 A2985 RMK AO2 SLP109 60000 T00330022 53004= METAR PAIL 291553Z 10004KT 10SM BKN041 OVC065 05/04 A2986 RMK AO2 SLP113 T00500039=
 Alaska TAF Map

NOAA's National Weather Service
Alaska Aviation Weather Unit
6930 Sand Lake Road
Anchorage, AK 99502-1845
Disclaimer
Credits
Glossary
Privacy Policy
About Us
Career Opportunities
Contact AAWU Internet Services Site last modified: April, 17th 2012